sensor_id;sensor_type;location;lat;lon;timestamp;P1;durP1;ratioP1;P2;durP2;ratioP2
29940;SDS011;16801;53.562;10.038;2023-05-23T00:01:53;5.25;;;4.85;;
29940;SDS011;16801;53.562;10.038;2023-05-23T00:05:17;5.45;;;4.90;;
29940;SDS011;16801;53.562;10.038;2023-05-23T00:08:38;4.82;;;4.40;;
29940;SDS011;16801;53.562;10.038;2023-05-23T00:11:59;5.15;;;4.65;;
29940;SDS011;16801;53.562;10.038;2023-05-23T00:15:20;4.57;;;4.22;;
29940;SDS011;16801;53.562;10.038;2023-05-23T00:18:42;4.55;;;4.15;;
29940;SDS011;16801;53.562;10.038;2023-05-23T00:22:04;7.50;;;5.15;;
29940;SDS011;16801;53.562;10.038;2023-05-23T00:25:25;3.60;;;3.20;;
29940;SDS011;16801;53.562;10.038;2023-05-23T00:28:52;14.82;;;14.10;;
29940;SDS011;16801;53.562;10.038;2023-05-23T00:32:14;0.40;;;0.40;;
29940;SDS011;16801;53.562;10.038;2023-05-23T00:35:36;4.18;;;3.78;;
29940;SDS011;16801;53.562;10.038;2023-05-23T00:38:57;4.43;;;4.07;;
29940;SDS011;16801;53.562;10.038;2023-05-23T00:42:20;4.28;;;3.88;;
29940;SDS011;16801;53.562;10.038;2023-05-23T00:45:41;4.68;;;4.25;;
29940;SDS011;16801;53.562;10.038;2023-05-23T00:49:02;4.78;;;4.38;;
29940;SDS011;16801;53.562;10.038;2023-05-23T00:52:25;6.40;;;5.35;;
29940;SDS011;16801;53.562;10.038;2023-05-23T00:55:48;5.50;;;4.95;;
29940;SDS011;16801;53.562;10.038;2023-05-23T00:59:08;6.13;;;5.55;;
29940;SDS011;16801;53.562;10.038;2023-05-23T01:02:29;6.85;;;5.70;;
29940;SDS011;16801;53.562;10.038;2023-05-23T01:05:55;7.20;;;5.53;;
29940;SDS011;16801;53.562;10.038;2023-05-23T01:09:17;5.43;;;4.97;;
29940;SDS011;16801;53.562;10.038;2023-05-23T01:12:44;5.22;;;4.82;;
29940;SDS011;16801;53.562;10.038;2023-05-23T01:16:12;5.28;;;4.85;;
29940;SDS011;16801;53.562;10.038;2023-05-23T01:19:43;6.03;;;5.47;;
29940;SDS011;16801;53.562;10.038;2023-05-23T01:27:18;6.22;;;5.63;;
29940;SDS011;16801;53.562;10.038;2023-05-23T01:30:51;6.93;;;6.18;;
29940;SDS011;16801;53.562;10.038;2023-05-23T01:34:16;7.07;;;6.45;;
29940;SDS011;16801;53.562;10.038;2023-05-23T01:37:39;7.00;;;6.50;;
29940;SDS011;16801;53.562;10.038;2023-05-23T01:41:00;7.40;;;6.70;;
29940;SDS011;16801;53.562;10.038;2023-05-23T01:44:21;7.80;;;6.82;;
29940;SDS011;16801;53.562;10.038;2023-05-23T01:47:43;7.15;;;6.45;;
29940;SDS011;16801;53.562;10.038;2023-05-23T01:51:07;6.25;;;5.75;;
29940;SDS011;16801;53.562;10.038;2023-05-23T01:54:28;7.13;;;6.20;;
29940;SDS011;16801;53.562;10.038;2023-05-23T01:57:51;9.15;;;8.27;;
29940;SDS011;16801;53.562;10.038;2023-05-23T02:01:14;10.38;;;9.48;;
29940;SDS011;16801;53.562;10.038;2023-05-23T02:04:36;12.57;;;11.48;;
29940;SDS011;16801;53.562;10.038;2023-05-23T02:07:57;13.82;;;12.63;;
29940;SDS011;16801;53.562;10.038;2023-05-23T02:11:18;13.70;;;12.50;;
29940;SDS011;16801;53.562;10.038;2023-05-23T02:14:39;13.25;;;12.02;;
29940;SDS011;16801;53.562;10.038;2023-05-23T02:18:00;12.98;;;11.77;;
29940;SDS011;16801;53.562;10.038;2023-05-23T02:21:24;16.60;;;15.10;;
29940;SDS011;16801;53.562;10.038;2023-05-23T02:24:45;19.73;;;16.97;;
29940;SDS011;16801;53.562;10.038;2023-05-23T02:28:06;17.92;;;16.17;;
29940;SDS011;16801;53.562;10.038;2023-05-23T02:31:27;17.67;;;16.08;;
29940;SDS011;16801;53.562;10.038;2023-05-23T02:34:47;19.20;;;17.35;;
29940;SDS011;16801;53.562;10.038;2023-05-23T02:38:10;19.67;;;17.95;;
29940;SDS011;16801;53.562;10.038;2023-05-23T02:41:34;18.48;;;16.67;;
29940;SDS011;16801;53.562;10.038;2023-05-23T02:44:55;22.73;;;20.43;;
29940;SDS011;16801;53.562;10.038;2023-05-23T02:48:16;20.37;;;18.27;;
29940;SDS011;16801;53.562;10.038;2023-05-23T02:51:37;26.38;;;22.88;;
29940;SDS011;16801;53.562;10.038;2023-05-23T02:54:59;22.97;;;20.70;;
29940;SDS011;16801;53.562;10.038;2023-05-23T02:58:22;26.40;;;20.83;;
29940;SDS011;16801;53.562;10.038;2023-05-23T03:01:43;20.97;;;18.87;;
29940;SDS011;16801;53.562;10.038;2023-05-23T03:05:05;23.00;;;19.20;;
29940;SDS011;16801;53.562;10.038;2023-05-23T03:08:26;25.77;;;19.53;;
29940;SDS011;16801;53.562;10.038;2023-05-23T03:11:49;20.77;;;18.77;;
29940;SDS011;16801;53.562;10.038;2023-05-23T03:15:10;28.10;;;19.20;;
29940;SDS011;16801;53.562;10.038;2023-05-23T03:18:33;20.53;;;17.80;;
29940;SDS011;16801;53.562;10.038;2023-05-23T03:21:55;19.23;;;17.43;;
29940;SDS011;16801;53.562;10.038;2023-05-23T03:25:16;17.00;;;15.07;;
29940;SDS011;16801;53.562;10.038;2023-05-23T03:28:38;18.87;;;15.27;;
29940;SDS011;16801;53.562;10.038;2023-05-23T03:31:59;20.50;;;17.60;;
29940;SDS011;16801;53.562;10.038;2023-05-23T03:35:20;18.17;;;16.30;;
29940;SDS011;16801;53.562;10.038;2023-05-23T03:38:42;21.57;;;19.07;;
29940;SDS011;16801;53.562;10.038;2023-05-23T03:42:03;23.67;;;16.03;;
29940;SDS011;16801;53.562;10.038;2023-05-23T03:45:25;17.43;;;15.60;;
29940;SDS011;16801;53.562;10.038;2023-05-23T03:48:46;19.27;;;17.30;;
29940;SDS011;16801;53.562;10.038;2023-05-23T03:52:07;19.40;;;17.30;;
29940;SDS011;16801;53.562;10.038;2023-05-23T03:55:27;22.80;;;18.37;;
29940;SDS011;16801;53.562;10.038;2023-05-23T03:58:50;18.37;;;16.43;;
29940;SDS011;16801;53.562;10.038;2023-05-23T04:02:13;16.77;;;14.97;;
29940;SDS011;16801;53.562;10.038;2023-05-23T04:05:34;19.20;;;17.37;;
29940;SDS011;16801;53.562;10.038;2023-05-23T04:08:54;17.57;;;15.87;;
29940;SDS011;16801;53.562;10.038;2023-05-23T04:12:15;17.07;;;15.40;;
29940;SDS011;16801;53.562;10.038;2023-05-23T04:15:37;16.30;;;14.70;;
29940;SDS011;16801;53.562;10.038;2023-05-23T04:19:03;16.33;;;14.63;;
29940;SDS011;16801;53.562;10.038;2023-05-23T04:22:24;17.00;;;15.23;;
29940;SDS011;16801;53.562;10.038;2023-05-23T04:25:46;16.80;;;14.57;;
29940;SDS011;16801;53.562;10.038;2023-05-23T04:29:14;17.97;;;16.27;;
29940;SDS011;16801;53.562;10.038;2023-05-23T04:32:35;21.03;;;17.20;;
29940;SDS011;16801;53.562;10.038;2023-05-23T04:35:58;19.33;;;17.00;;
29940;SDS011;16801;53.562;10.038;2023-05-23T04:39:19;18.07;;;14.90;;
29940;SDS011;16801;53.562;10.038;2023-05-23T04:43:13;16.73;;;14.93;;
29940;SDS011;16801;53.562;10.038;2023-05-23T04:46:41;22.97;;;18.33;;
29940;SDS011;16801;53.562;10.038;2023-05-23T04:50:15;22.52;;;17.00;;
29940;SDS011;16801;53.562;10.038;2023-05-23T04:53:39;18.88;;;16.92;;
29940;SDS011;16801;53.562;10.038;2023-05-23T04:57:03;23.07;;;17.27;;
29940;SDS011;16801;53.562;10.038;2023-05-23T05:00:26;19.40;;;15.33;;
29940;SDS011;16801;53.562;10.038;2023-05-23T05:03:49;18.20;;;16.40;;
29940;SDS011;16801;53.562;10.038;2023-05-23T05:07:10;26.53;;;17.73;;
29940;SDS011;16801;53.562;10.038;2023-05-23T05:10:33;19.80;;;17.60;;
29940;SDS011;16801;53.562;10.038;2023-05-23T05:13:55;22.17;;;18.25;;
29940;SDS011;16801;53.562;10.038;2023-05-23T05:17:17;21.37;;;16.60;;
29940;SDS011;16801;53.562;10.038;2023-05-23T05:20:53;21.70;;;18.03;;
29940;SDS011;16801;53.562;10.038;2023-05-23T05:24:15;20.73;;;16.40;;
29940;SDS011;16801;53.562;10.038;2023-05-23T05:27:40;17.53;;;15.70;;
29940;SDS011;16801;53.562;10.038;2023-05-23T05:31:04;19.77;;;17.57;;
29940;SDS011;16801;53.562;10.038;2023-05-23T05:34:27;23.43;;;18.10;;
29940;SDS011;16801;53.562;10.038;2023-05-23T05:37:49;25.00;;;18.37;;
29940;SDS011;16801;53.562;10.038;2023-05-23T05:41:11;25.70;;;20.73;;
29940;SDS011;16801;53.562;10.038;2023-05-23T05:44:39;24.80;;;18.73;;
29940;SDS011;16801;53.562;10.038;2023-05-23T05:48:00;23.43;;;19.80;;
29940;SDS011;16801;53.562;10.038;2023-05-23T05:51:22;26.67;;;19.73;;
29940;SDS011;16801;53.562;10.038;2023-05-23T05:54:43;18.13;;;16.23;;
29940;SDS011;16801;53.562;10.038;2023-05-23T05:58:05;20.70;;;17.53;;
29940;SDS011;16801;53.562;10.038;2023-05-23T06:01:42;30.37;;;18.07;;
29940;SDS011;16801;53.562;10.038;2023-05-23T06:05:05;22.00;;;19.37;;
29940;SDS011;16801;53.562;10.038;2023-05-23T06:08:26;25.30;;;19.27;;
29940;SDS011;16801;53.562;10.038;2023-05-23T06:11:47;24.43;;;20.10;;
29940;SDS011;16801;53.562;10.038;2023-05-23T06:15:08;24.93;;;21.07;;
29940;SDS011;16801;53.562;10.038;2023-05-23T06:18:33;24.70;;;22.23;;
29940;SDS011;16801;53.562;10.038;2023-05-23T06:21:54;26.80;;;21.90;;
29940;SDS011;16801;53.562;10.038;2023-05-23T06:25:17;26.07;;;18.80;;
29940;SDS011;16801;53.562;10.038;2023-05-23T06:28:39;26.77;;;24.00;;
29940;SDS011;16801;53.562;10.038;2023-05-23T06:32:00;28.70;;;22.70;;
29940;SDS011;16801;53.562;10.038;2023-05-23T06:35:23;29.00;;;20.70;;
29940;SDS011;16801;53.562;10.038;2023-05-23T06:38:44;26.30;;;21.23;;
29940;SDS011;16801;53.562;10.038;2023-05-23T06:42:04;24.30;;;20.33;;
29940;SDS011;16801;53.562;10.038;2023-05-23T06:45:44;32.77;;;21.27;;
29940;SDS011;16801;53.562;10.038;2023-05-23T06:49:06;20.00;;;18.07;;
29940;SDS011;16801;53.562;10.038;2023-05-23T06:52:30;28.20;;;18.47;;
29940;SDS011;16801;53.562;10.038;2023-05-23T06:55:52;26.50;;;21.93;;
29940;SDS011;16801;53.562;10.038;2023-05-23T06:59:14;24.27;;;19.50;;
29940;SDS011;16801;53.562;10.038;2023-05-23T07:02:36;18.40;;;16.53;;
29940;SDS011;16801;53.562;10.038;2023-05-23T07:05:58;16.37;;;14.80;;
29940;SDS011;16801;53.562;10.038;2023-05-23T07:09:20;14.60;;;12.85;;
29940;SDS011;16801;53.562;10.038;2023-05-23T07:12:42;11.27;;;9.75;;
29940;SDS011;16801;53.562;10.038;2023-05-23T07:16:03;12.57;;;11.27;;
29940;SDS011;16801;53.562;10.038;2023-05-23T07:19:27;13.10;;;11.73;;
29940;SDS011;16801;53.562;10.038;2023-05-23T07:22:48;11.23;;;10.23;;
29940;SDS011;16801;53.562;10.038;2023-05-23T07:26:12;10.10;;;9.17;;
29940;SDS011;16801;53.562;10.038;2023-05-23T07:29:38;9.53;;;7.77;;
29940;SDS011;16801;53.562;10.038;2023-05-23T07:33:01;8.20;;;7.40;;
29940;SDS011;16801;53.562;10.038;2023-05-23T07:36:23;10.23;;;7.17;;
29940;SDS011;16801;53.562;10.038;2023-05-23T07:39:44;6.87;;;6.20;;
29940;SDS011;16801;53.562;10.038;2023-05-23T07:43:06;6.93;;;6.17;;
29940;SDS011;16801;53.562;10.038;2023-05-23T07:46:28;5.27;;;4.87;;
29940;SDS011;16801;53.562;10.038;2023-05-23T07:49:49;6.93;;;6.33;;
29940;SDS011;16801;53.562;10.038;2023-05-23T07:53:11;5.93;;;5.43;;
29940;SDS011;16801;53.562;10.038;2023-05-23T07:56:33;5.00;;;4.60;;
29940;SDS011;16801;53.562;10.038;2023-05-23T07:59:55;5.73;;;5.27;;
29940;SDS011;16801;53.562;10.038;2023-05-23T08:03:18;3.73;;;3.43;;
29940;SDS011;16801;53.562;10.038;2023-05-23T08:06:51;6.03;;;5.53;;
29940;SDS011;16801;53.562;10.038;2023-05-23T08:10:15;4.70;;;4.23;;
29940;SDS011;16801;53.562;10.038;2023-05-23T08:13:37;5.80;;;5.20;;
29940;SDS011;16801;53.562;10.038;2023-05-23T08:17:17;6.27;;;4.73;;
29940;SDS011;16801;53.562;10.038;2023-05-23T08:20:39;6.07;;;4.37;;
29940;SDS011;16801;53.562;10.038;2023-05-23T08:24:00;4.87;;;4.37;;
29940;SDS011;16801;53.562;10.038;2023-05-23T08:27:21;5.23;;;4.53;;
29940;SDS011;16801;53.562;10.038;2023-05-23T08:30:47;6.43;;;4.27;;
29940;SDS011;16801;53.562;10.038;2023-05-23T08:34:10;4.70;;;4.30;;
29940;SDS011;16801;53.562;10.038;2023-05-23T08:37:32;3.50;;;3.20;;
29940;SDS011;16801;53.562;10.038;2023-05-23T08:40:53;3.00;;;2.77;;
29940;SDS011;16801;53.562;10.038;2023-05-23T08:44:17;3.40;;;2.97;;
29940;SDS011;16801;53.562;10.038;2023-05-23T08:47:42;3.58;;;3.35;;
29940;SDS011;16801;53.562;10.038;2023-05-23T08:51:05;3.90;;;3.47;;
29940;SDS011;16801;53.562;10.038;2023-05-23T08:54:29;10.03;;;4.07;;
29940;SDS011;16801;53.562;10.038;2023-05-23T08:57:51;6.87;;;3.77;;
29940;SDS011;16801;53.562;10.038;2023-05-23T09:01:35;6.97;;;4.37;;
29940;SDS011;16801;53.562;10.038;2023-05-23T09:05:00;8.53;;;3.77;;
29940;SDS011;16801;53.562;10.038;2023-05-23T09:08:22;5.07;;;3.83;;
29940;SDS011;16801;53.562;10.038;2023-05-23T09:11:47;3.90;;;3.50;;
29940;SDS011;16801;53.562;10.038;2023-05-23T09:15:10;3.00;;;2.80;;
29940;SDS011;16801;53.562;10.038;2023-05-23T09:18:33;6.53;;;4.15;;
29940;SDS011;16801;53.562;10.038;2023-05-23T09:21:57;5.23;;;3.80;;
29940;SDS011;16801;53.562;10.038;2023-05-23T09:25:21;4.53;;;4.13;;
29940;SDS011;16801;53.562;10.038;2023-05-23T09:28:43;7.97;;;5.53;;
29940;SDS011;16801;53.562;10.038;2023-05-23T09:32:13;4.87;;;4.40;;
29940;SDS011;16801;53.562;10.038;2023-05-23T09:35:35;4.53;;;4.00;;
29940;SDS011;16801;53.562;10.038;2023-05-23T09:38:56;4.00;;;3.43;;
29940;SDS011;16801;53.562;10.038;2023-05-23T09:42:21;7.57;;;5.23;;
29940;SDS011;16801;53.562;10.038;2023-05-23T09:45:42;7.93;;;5.10;;
29940;SDS011;16801;53.562;10.038;2023-05-23T09:49:13;5.43;;;4.53;;
29940;SDS011;16801;53.562;10.038;2023-05-23T09:52:37;5.73;;;3.97;;
29940;SDS011;16801;53.562;10.038;2023-05-23T09:55:58;5.63;;;4.30;;
29940;SDS011;16801;53.562;10.038;2023-05-23T09:59:22;3.40;;;3.17;;
29940;SDS011;16801;53.562;10.038;2023-05-23T10:02:53;4.60;;;3.17;;
29940;SDS011;16801;53.562;10.038;2023-05-23T10:06:16;3.57;;;2.93;;
29940;SDS011;16801;53.562;10.038;2023-05-23T10:09:41;3.50;;;3.20;;
29940;SDS011;16801;53.562;10.038;2023-05-23T10:13:07;3.20;;;2.90;;
29940;SDS011;16801;53.562;10.038;2023-05-23T10:16:32;4.50;;;3.27;;
29940;SDS011;16801;53.562;10.038;2023-05-23T10:20:00;4.20;;;2.70;;
29940;SDS011;16801;53.562;10.038;2023-05-23T10:23:26;2.70;;;2.50;;
29940;SDS011;16801;53.562;10.038;2023-05-23T10:26:49;3.73;;;3.20;;
29940;SDS011;16801;53.562;10.038;2023-05-23T10:30:10;8.33;;;2.50;;
29940;SDS011;16801;53.562;10.038;2023-05-23T10:33:34;2.17;;;1.97;;
29940;SDS011;16801;53.562;10.038;2023-05-23T10:37:01;3.50;;;2.73;;
29940;SDS011;16801;53.562;10.038;2023-05-23T10:40:26;2.70;;;1.87;;
29940;SDS011;16801;53.562;10.038;2023-05-23T10:43:54;2.30;;;1.97;;
29940;SDS011;16801;53.562;10.038;2023-05-23T10:47:28;2.67;;;2.03;;
29940;SDS011;16801;53.562;10.038;2023-05-23T10:51:05;2.70;;;2.23;;
29940;SDS011;16801;53.562;10.038;2023-05-23T10:54:28;3.17;;;2.23;;
29940;SDS011;16801;53.562;10.038;2023-05-23T10:58:10;3.87;;;1.90;;
29940;SDS011;16801;53.562;10.038;2023-05-23T11:01:32;2.63;;;2.33;;
29940;SDS011;16801;53.562;10.038;2023-05-23T11:05:18;6.00;;;4.23;;
29940;SDS011;16801;53.562;10.038;2023-05-23T11:08:41;6.87;;;3.13;;
29940;SDS011;16801;53.562;10.038;2023-05-23T11:12:05;7.63;;;3.00;;
29940;SDS011;16801;53.562;10.038;2023-05-23T11:15:26;6.13;;;2.60;;
29940;SDS011;16801;53.562;10.038;2023-05-23T11:18:47;3.50;;;2.07;;
29940;SDS011;16801;53.562;10.038;2023-05-23T11:22:08;7.00;;;2.03;;
29940;SDS011;16801;53.562;10.038;2023-05-23T11:25:40;3.60;;;1.83;;
29940;SDS011;16801;53.562;10.038;2023-05-23T11:29:03;4.03;;;3.03;;
29940;SDS011;16801;53.562;10.038;2023-05-23T11:32:28;8.83;;;2.87;;
29940;SDS011;16801;53.562;10.038;2023-05-23T11:35:50;6.83;;;2.60;;
29940;SDS011;16801;53.562;10.038;2023-05-23T11:39:11;2.60;;;2.20;;
29940;SDS011;16801;53.562;10.038;2023-05-23T11:42:35;5.40;;;2.87;;
29940;SDS011;16801;53.562;10.038;2023-05-23T11:46:06;4.23;;;2.40;;
29940;SDS011;16801;53.562;10.038;2023-05-23T11:49:29;3.50;;;2.70;;
29940;SDS011;16801;53.562;10.038;2023-05-23T11:52:50;5.93;;;2.47;;
29940;SDS011;16801;53.562;10.038;2023-05-23T11:56:13;6.83;;;3.43;;
29940;SDS011;16801;53.562;10.038;2023-05-23T11:59:38;8.07;;;2.90;;
29940;SDS011;16801;53.562;10.038;2023-05-23T12:02:59;7.07;;;3.20;;
29940;SDS011;16801;53.562;10.038;2023-05-23T12:06:26;3.53;;;3.20;;
29940;SDS011;16801;53.562;10.038;2023-05-23T12:09:46;3.80;;;2.60;;
29940;SDS011;16801;53.562;10.038;2023-05-23T12:13:07;4.47;;;2.43;;
29940;SDS011;16801;53.562;10.038;2023-05-23T12:16:29;3.72;;;2.97;;
29940;SDS011;16801;53.562;10.038;2023-05-23T12:19:51;5.10;;;3.03;;
29940;SDS011;16801;53.562;10.038;2023-05-23T12:23:16;4.27;;;3.50;;
29940;SDS011;16801;53.562;10.038;2023-05-23T12:26:44;10.80;;;3.60;;
29940;SDS011;16801;53.562;10.038;2023-05-23T12:30:06;10.95;;;4.53;;
29940;SDS011;16801;53.562;10.038;2023-05-23T12:33:30;11.43;;;3.00;;
29940;SDS011;16801;53.562;10.038;2023-05-23T12:36:53;4.95;;;2.95;;
29940;SDS011;16801;53.562;10.038;2023-05-23T12:40:14;2.53;;;2.30;;
29940;SDS011;16801;53.562;10.038;2023-05-23T12:43:37;4.85;;;3.40;;
29940;SDS011;16801;53.562;10.038;2023-05-23T12:46:59;5.15;;;2.55;;
29940;SDS011;16801;53.562;10.038;2023-05-23T12:50:21;6.13;;;3.15;;
29940;SDS011;16801;53.562;10.038;2023-05-23T12:53:42;5.95;;;2.97;;
29940;SDS011;16801;53.562;10.038;2023-05-23T12:57:03;5.72;;;3.17;;
29940;SDS011;16801;53.562;10.038;2023-05-23T13:00:24;7.68;;;2.67;;
29940;SDS011;16801;53.562;10.038;2023-05-23T13:03:45;7.85;;;3.20;;
29940;SDS011;16801;53.562;10.038;2023-05-23T13:07:11;6.60;;;3.70;;
29940;SDS011;16801;53.562;10.038;2023-05-23T13:10:32;5.70;;;4.03;;
29940;SDS011;16801;53.562;10.038;2023-05-23T13:13:52;5.93;;;3.25;;
29940;SDS011;16801;53.562;10.038;2023-05-23T13:17:13;5.35;;;3.05;;
29940;SDS011;16801;53.562;10.038;2023-05-23T13:20:34;6.43;;;3.05;;
29940;SDS011;16801;53.562;10.038;2023-05-23T13:23:57;7.82;;;3.42;;
29940;SDS011;16801;53.562;10.038;2023-05-23T13:27:18;11.48;;;4.75;;
29940;SDS011;16801;53.562;10.038;2023-05-23T13:30:39;5.55;;;2.85;;
29940;SDS011;16801;53.562;10.038;2023-05-23T13:33:59;6.07;;;3.23;;
29940;SDS011;16801;53.562;10.038;2023-05-23T13:37:20;5.90;;;2.93;;
29940;SDS011;16801;53.562;10.038;2023-05-23T13:40:43;9.93;;;4.80;;
29940;SDS011;16801;53.562;10.038;2023-05-23T13:44:04;6.73;;;2.97;;
29940;SDS011;16801;53.562;10.038;2023-05-23T13:47:24;10.20;;;3.83;;
29940;SDS011;16801;53.562;10.038;2023-05-23T13:50:45;6.60;;;3.47;;
29940;SDS011;16801;53.562;10.038;2023-05-23T13:54:06;8.90;;;3.10;;
29940;SDS011;16801;53.562;10.038;2023-05-23T13:57:28;6.53;;;2.87;;
29940;SDS011;16801;53.562;10.038;2023-05-23T14:00:49;9.65;;;3.85;;
29940;SDS011;16801;53.562;10.038;2023-05-23T14:04:11;9.13;;;3.72;;
29940;SDS011;16801;53.562;10.038;2023-05-23T14:07:32;6.13;;;3.35;;
29940;SDS011;16801;53.562;10.038;2023-05-23T14:10:52;6.63;;;3.20;;
29940;SDS011;16801;53.562;10.038;2023-05-23T14:14:15;12.68;;;4.38;;
29940;SDS011;16801;53.562;10.038;2023-05-23T14:17:35;5.57;;;3.22;;
29940;SDS011;16801;53.562;10.038;2023-05-23T14:20:56;6.43;;;3.20;;
29940;SDS011;16801;53.562;10.038;2023-05-23T14:24:17;9.10;;;3.55;;
29940;SDS011;16801;53.562;10.038;2023-05-23T14:27:38;6.78;;;2.80;;
29940;SDS011;16801;53.562;10.038;2023-05-23T14:31:00;9.23;;;3.38;;
29940;SDS011;16801;53.562;10.038;2023-05-23T14:34:21;6.18;;;3.00;;
29940;SDS011;16801;53.562;10.038;2023-05-23T14:37:42;8.87;;;3.20;;
29940;SDS011;16801;53.562;10.038;2023-05-23T14:41:04;10.30;;;3.97;;
29940;SDS011;16801;53.562;10.038;2023-05-23T14:44:25;8.60;;;3.93;;
29940;SDS011;16801;53.562;10.038;2023-05-23T14:47:47;10.17;;;4.53;;
29940;SDS011;16801;53.562;10.038;2023-05-23T14:51:08;6.82;;;3.05;;
29940;SDS011;16801;53.562;10.038;2023-05-23T14:54:29;6.75;;;2.70;;
29940;SDS011;16801;53.562;10.038;2023-05-23T14:57:50;6.87;;;2.83;;
29940;SDS011;16801;53.562;10.038;2023-05-23T15:01:11;5.73;;;2.47;;
29940;SDS011;16801;53.562;10.038;2023-05-23T15:04:34;6.43;;;3.63;;
29940;SDS011;16801;53.562;10.038;2023-05-23T15:07:55;8.77;;;2.80;;
29940;SDS011;16801;53.562;10.038;2023-05-23T15:11:16;4.63;;;2.67;;
29940;SDS011;16801;53.562;10.038;2023-05-23T15:14:37;6.00;;;3.17;;
29940;SDS011;16801;53.562;10.038;2023-05-23T15:17:58;10.80;;;2.67;;
29940;SDS011;16801;53.562;10.038;2023-05-23T15:21:24;8.23;;;3.43;;
29940;SDS011;16801;53.562;10.038;2023-05-23T15:24:45;8.00;;;4.07;;
29940;SDS011;16801;53.562;10.038;2023-05-23T15:28:06;7.40;;;3.27;;
29940;SDS011;16801;53.562;10.038;2023-05-23T15:31:27;5.83;;;3.57;;
29940;SDS011;16801;53.562;10.038;2023-05-23T15:34:48;10.27;;;2.93;;
29940;SDS011;16801;53.562;10.038;2023-05-23T15:38:11;3.47;;;1.80;;
29940;SDS011;16801;53.562;10.038;2023-05-23T15:41:32;8.03;;;4.07;;
29940;SDS011;16801;53.562;10.038;2023-05-23T15:44:52;14.83;;;3.40;;
29940;SDS011;16801;53.562;10.038;2023-05-23T15:48:13;9.33;;;3.83;;
29940;SDS011;16801;53.562;10.038;2023-05-23T15:51:34;9.10;;;3.27;;
29940;SDS011;16801;53.562;10.038;2023-05-23T15:54:56;9.90;;;3.97;;
29940;SDS011;16801;53.562;10.038;2023-05-23T15:58:17;4.63;;;3.07;;
29940;SDS011;16801;53.562;10.038;2023-05-23T16:01:38;8.83;;;4.10;;
29940;SDS011;16801;53.562;10.038;2023-05-23T16:05:00;7.23;;;4.17;;
29940;SDS011;16801;53.562;10.038;2023-05-23T16:08:20;9.57;;;2.80;;
29940;SDS011;16801;53.562;10.038;2023-05-23T16:11:43;6.23;;;3.03;;
29940;SDS011;16801;53.562;10.038;2023-05-23T16:15:04;9.43;;;3.07;;
29940;SDS011;16801;53.562;10.038;2023-05-23T16:18:25;6.93;;;4.10;;
29940;SDS011;16801;53.562;10.038;2023-05-23T16:21:46;12.03;;;4.10;;
29940;SDS011;16801;53.562;10.038;2023-05-23T16:25:09;10.87;;;6.43;;
29940;SDS011;16801;53.562;10.038;2023-05-23T16:28:31;9.53;;;5.23;;
29940;SDS011;16801;53.562;10.038;2023-05-23T16:31:52;11.90;;;5.87;;
29940;SDS011;16801;53.562;10.038;2023-05-23T16:35:13;14.80;;;5.50;;
29940;SDS011;16801;53.562;10.038;2023-05-23T16:38:34;9.23;;;3.13;;
29940;SDS011;16801;53.562;10.038;2023-05-23T16:41:57;7.50;;;4.33;;
29940;SDS011;16801;53.562;10.038;2023-05-23T16:45:19;11.47;;;4.63;;
29940;SDS011;16801;53.562;10.038;2023-05-23T16:48:40;11.80;;;4.60;;
29940;SDS011;16801;53.562;10.038;2023-05-23T16:52:04;10.20;;;3.73;;
29940;SDS011;16801;53.562;10.038;2023-05-23T16:55:25;9.50;;;2.83;;
29940;SDS011;16801;53.562;10.038;2023-05-23T16:58:45;11.70;;;4.97;;
29940;SDS011;16801;53.562;10.038;2023-05-23T17:02:07;15.77;;;5.77;;
29940;SDS011;16801;53.562;10.038;2023-05-23T17:05:31;10.03;;;3.63;;
29940;SDS011;16801;53.562;10.038;2023-05-23T17:08:52;7.47;;;3.77;;
29940;SDS011;16801;53.562;10.038;2023-05-23T17:12:13;6.23;;;2.60;;
29940;SDS011;16801;53.562;10.038;2023-05-23T17:15:34;9.27;;;3.87;;
29940;SDS011;16801;53.562;10.038;2023-05-23T17:18:56;7.27;;;3.70;;
29940;SDS011;16801;53.562;10.038;2023-05-23T17:22:16;4.47;;;3.10;;
29940;SDS011;16801;53.562;10.038;2023-05-23T17:25:37;10.70;;;3.93;;
29940;SDS011;16801;53.562;10.038;2023-05-23T17:28:58;7.10;;;4.50;;
29940;SDS011;16801;53.562;10.038;2023-05-23T17:32:19;9.20;;;3.67;;
29940;SDS011;16801;53.562;10.038;2023-05-23T17:35:41;7.40;;;3.53;;
29940;SDS011;16801;53.562;10.038;2023-05-23T17:39:03;5.97;;;4.57;;
29940;SDS011;16801;53.562;10.038;2023-05-23T17:42:23;7.77;;;3.73;;
29940;SDS011;16801;53.562;10.038;2023-05-23T17:45:44;10.53;;;5.50;;
29940;SDS011;16801;53.562;10.038;2023-05-23T17:49:05;10.60;;;7.13;;
29940;SDS011;16801;53.562;10.038;2023-05-23T17:52:27;13.43;;;4.37;;
29940;SDS011;16801;53.562;10.038;2023-05-23T17:55:48;10.60;;;4.87;;
29940;SDS011;16801;53.562;10.038;2023-05-23T17:59:09;3.33;;;2.80;;
29940;SDS011;16801;53.562;10.038;2023-05-23T18:02:33;4.93;;;2.70;;
29940;SDS011;16801;53.562;10.038;2023-05-23T18:05:54;8.47;;;2.87;;
29940;SDS011;16801;53.562;10.038;2023-05-23T18:09:16;6.47;;;2.67;;
29940;SDS011;16801;53.562;10.038;2023-05-23T18:12:37;9.93;;;5.37;;
29940;SDS011;16801;53.562;10.038;2023-05-23T18:15:58;10.20;;;4.50;;
29940;SDS011;16801;53.562;10.038;2023-05-23T18:19:19;11.70;;;3.80;;
29940;SDS011;16801;53.562;10.038;2023-05-23T18:22:40;9.47;;;5.07;;
29940;SDS011;16801;53.562;10.038;2023-05-23T18:26:02;8.73;;;4.37;;
29940;SDS011;16801;53.562;10.038;2023-05-23T18:29:23;9.03;;;3.90;;
29940;SDS011;16801;53.562;10.038;2023-05-23T18:32:44;7.93;;;2.70;;
29940;SDS011;16801;53.562;10.038;2023-05-23T18:36:05;12.73;;;4.43;;
29940;SDS011;16801;53.562;10.038;2023-05-23T18:39:27;11.50;;;5.07;;
29940;SDS011;16801;53.562;10.038;2023-05-23T18:42:49;7.27;;;3.30;;
29940;SDS011;16801;53.562;10.038;2023-05-23T18:46:10;7.67;;;5.30;;
29940;SDS011;16801;53.562;10.038;2023-05-23T18:49:31;11.23;;;6.03;;
29940;SDS011;16801;53.562;10.038;2023-05-23T18:52:51;7.50;;;4.07;;
29940;SDS011;16801;53.562;10.038;2023-05-23T18:56:12;10.43;;;3.93;;
29940;SDS011;16801;53.562;10.038;2023-05-23T18:59:34;9.60;;;3.60;;
29940;SDS011;16801;53.562;10.038;2023-05-23T19:02:55;5.60;;;2.80;;
29940;SDS011;16801;53.562;10.038;2023-05-23T19:06:16;11.27;;;3.20;;
29940;SDS011;16801;53.562;10.038;2023-05-23T19:09:37;9.63;;;4.43;;
29940;SDS011;16801;53.562;10.038;2023-05-23T19:12:58;7.60;;;3.53;;
29940;SDS011;16801;53.562;10.038;2023-05-23T19:16:20;6.53;;;3.23;;
29940;SDS011;16801;53.562;10.038;2023-05-23T19:19:42;9.00;;;3.53;;
29940;SDS011;16801;53.562;10.038;2023-05-23T19:23:03;13.80;;;3.97;;
29940;SDS011;16801;53.562;10.038;2023-05-23T19:26:24;8.73;;;3.27;;
29940;SDS011;16801;53.562;10.038;2023-05-23T19:29:45;9.73;;;3.70;;
29940;SDS011;16801;53.562;10.038;2023-05-23T19:33:07;10.43;;;4.07;;
29940;SDS011;16801;53.562;10.038;2023-05-23T19:36:28;13.67;;;4.03;;
29940;SDS011;16801;53.562;10.038;2023-05-23T19:39:49;14.37;;;4.63;;
29940;SDS011;16801;53.562;10.038;2023-05-23T19:43:10;8.33;;;4.23;;
29940;SDS011;16801;53.562;10.038;2023-05-23T19:46:31;7.53;;;2.67;;
29940;SDS011;16801;53.562;10.038;2023-05-23T19:49:53;5.57;;;3.13;;
29940;SDS011;16801;53.562;10.038;2023-05-23T19:53:14;12.00;;;3.93;;
29940;SDS011;16801;53.562;10.038;2023-05-23T19:56:35;5.33;;;3.93;;